createdAt,value
2022-10-04T00:00:29.194Z,3.22
2022-10-04T00:03:07.143Z,3.03
2022-10-04T00:05:34.882Z,3.83
2022-10-04T00:08:21.971Z,2.78
2022-10-04T00:10:49.222Z,3.30
2022-10-04T00:13:25.144Z,3.63
2022-10-04T00:15:52.657Z,3.13
2022-10-04T00:18:39.144Z,3.03
2022-10-04T00:21:08.135Z,3.50
2022-10-04T00:23:37.786Z,3.90
2022-10-04T00:26:34.890Z,3.33
2022-10-04T00:29:30.920Z,3.50
2022-10-04T00:32:10.094Z,3.28
2022-10-04T00:34:47.110Z,3.47
2022-10-04T00:37:15.450Z,4.03
2022-10-04T00:39:44.993Z,4.57
2022-10-04T00:42:31.739Z,3.72
2022-10-04T00:45:10.591Z,4.05
2022-10-04T00:47:46.891Z,4.00
2022-10-04T00:50:23.934Z,3.67
2022-10-04T00:52:56.980Z,4.20
2022-10-04T00:55:34.631Z,3.53
2022-10-04T00:58:05.229Z,3.58
2022-10-04T01:00:35.414Z,3.70
2022-10-04T01:03:14.196Z,3.90
2022-10-04T01:05:53.752Z,4.45
2022-10-04T01:08:28.667Z,3.67
2022-10-04T01:11:04.175Z,3.40
2022-10-04T01:13:45.286Z,3.22
2022-10-04T01:16:22.175Z,2.80
2022-10-04T01:18:49.200Z,3.60
2022-10-04T01:21:19.010Z,3.30
2022-10-04T01:23:51.948Z,3.33
2022-10-04T01:26:32.167Z,2.75
2022-10-04T01:29:02.010Z,4.25
2022-10-04T01:31:31.344Z,3.63
2022-10-04T01:34:00.952Z,3.60
2022-10-04T01:36:28.853Z,3.30
2022-10-04T01:38:56.383Z,3.13
2022-10-04T01:42:05.249Z,4.47
2022-10-04T01:44:39.764Z,3.65
2022-10-04T01:47:18.178Z,4.00
2022-10-04T01:49:47.245Z,3.25
2022-10-04T01:52:19.738Z,2.85
2022-10-04T01:54:53.290Z,3.35
2022-10-04T01:57:27.157Z,3.30
2022-10-04T02:00:01.865Z,4.20
2022-10-04T02:02:35.535Z,3.25
2022-10-04T02:05:05.802Z,4.07
2022-10-04T02:07:34.875Z,3.85
2022-10-04T02:10:12.151Z,3.70
2022-10-04T02:12:46.369Z,3.50
2022-10-04T02:15:14.604Z,3.83
2022-10-04T02:17:43.967Z,3.67
2022-10-04T02:20:23.921Z,3.83
2022-10-04T02:22:56.363Z,3.45
2022-10-04T02:25:23.455Z,3.20
2022-10-04T02:27:54.428Z,3.90
2022-10-04T02:30:22.651Z,3.67
2022-10-04T02:33:00.701Z,3.15
2022-10-04T02:35:31.020Z,3.10
2022-10-04T02:38:15.609Z,3.25
2022-10-04T02:40:57.143Z,3.20
2022-10-04T02:43:30.363Z,3.03
2022-10-04T02:46:15.118Z,3.40
2022-10-04T02:48:48.768Z,4.00
2022-10-04T02:51:31.257Z,3.22
2022-10-04T02:54:28.453Z,3.33
2022-10-04T02:56:58.010Z,3.05
2022-10-04T02:59:25.278Z,4.40
2022-10-04T03:01:58.498Z,3.78
2022-10-04T03:04:37.352Z,3.22
2022-10-04T03:07:08.377Z,3.30
2022-10-04T03:09:38.000Z,3.67
2022-10-04T03:12:06.166Z,3.30
2022-10-04T03:14:34.022Z,3.33
2022-10-04T03:17:06.329Z,2.97
2022-10-04T03:19:35.277Z,3.10
2022-10-04T03:22:07.663Z,4.10
2022-10-04T03:24:48.469Z,3.25
2022-10-04T03:27:21.884Z,3.30
2022-10-04T03:29:50.432Z,2.70
2022-10-04T03:32:19.094Z,3.45
2022-10-04T03:34:57.439Z,3.45
2022-10-04T03:37:26.112Z,3.58
2022-10-04T03:39:55.375Z,4.22
2022-10-04T03:42:28.744Z,3.35
2022-10-04T03:45:01.085Z,3.88
2022-10-04T03:47:32.148Z,4.03
2022-10-04T03:50:21.850Z,3.22
2022-10-04T03:52:59.744Z,3.38
2022-10-04T03:55:38.781Z,4.93
2022-10-04T03:58:07.074Z,3.20
2022-10-04T04:00:39.673Z,3.75
2022-10-04T04:03:09.528Z,3.10
2022-10-04T04:05:45.052Z,3.85
2022-10-04T04:08:28.572Z,3.58
2022-10-04T04:10:58.700Z,3.65
2022-10-04T04:13:39.006Z,4.63
2022-10-04T04:16:06.749Z,4.57
2022-10-04T04:18:35.925Z,4.25
2022-10-04T04:21:05.323Z,3.90
2022-10-04T04:23:39.513Z,3.65
2022-10-04T04:26:19.900Z,4.00
2022-10-04T04:28:51.047Z,3.72
2022-10-04T04:31:23.525Z,4.13
2022-10-04T04:34:00.683Z,3.90
2022-10-04T04:36:39.396Z,4.22
2022-10-04T04:39:27.896Z,4.10
2022-10-04T04:41:54.997Z,3.55
2022-10-04T04:44:22.536Z,3.75
2022-10-04T04:46:49.581Z,4.68
2022-10-04T04:49:18.548Z,3.33
2022-10-04T04:51:51.766Z,4.13
2022-10-04T04:54:23.848Z,4.18
2022-10-04T04:56:53.097Z,3.38
2022-10-04T04:59:24.588Z,4.32
2022-10-04T05:01:51.675Z,3.65
2022-10-04T05:04:22.131Z,3.50
2022-10-04T05:09:36.583Z,3.35
2022-10-04T05:12:21.464Z,3.97
2022-10-04T05:14:53.330Z,3.10
2022-10-04T05:19:58.964Z,4.70
2022-10-04T05:22:27.223Z,3.30
2022-10-04T05:24:59.109Z,4.60
2022-10-04T05:30:07.821Z,4.43
2022-10-04T05:32:56.235Z,3.25
2022-10-04T05:35:23.751Z,4.30
2022-10-04T05:38:18.815Z,4.05
2022-10-04T05:40:59.481Z,3.35
2022-10-04T05:43:29.226Z,3.67
2022-10-04T05:46:18.431Z,3.67
2022-10-04T05:48:48.467Z,3.47
2022-10-04T05:51:37.556Z,5.63
2022-10-04T05:54:05.584Z,3.15
2022-10-04T05:57:10.297Z,3.97
2022-10-04T05:59:50.103Z,3.47
2022-10-04T06:02:56.969Z,3.65
2022-10-04T06:05:49.955Z,3.58
2022-10-04T06:08:26.111Z,3.65
2022-10-04T06:11:15.954Z,4.20
2022-10-04T06:13:52.644Z,4.30
2022-10-04T06:16:41.510Z,3.88
2022-10-04T06:19:28.800Z,3.17
2022-10-04T06:22:18.419Z,3.38
2022-10-04T06:24:51.984Z,3.30
2022-10-04T06:27:41.669Z,3.90
2022-10-04T06:30:17.578Z,3.47
2022-10-04T06:32:56.764Z,3.58
2022-10-04T06:35:50.172Z,6.03
2022-10-04T06:38:28.100Z,4.07
2022-10-04T06:41:23.513Z,3.25
2022-10-04T06:44:12.761Z,4.22
2022-10-04T06:46:50.402Z,3.63
2022-10-04T06:49:32.853Z,3.25
2022-10-04T06:52:37.621Z,3.63
2022-10-04T06:55:24.403Z,3.20
2022-10-04T06:57:54.243Z,4.13
2022-10-04T07:00:29.292Z,5.57
2022-10-04T07:03:05.371Z,3.20
2022-10-04T07:05:34.978Z,3.03
2022-10-04T07:08:12.290Z,3.20
2022-10-04T07:10:56.396Z,3.88
2022-10-04T07:13:41.639Z,3.47
2022-10-04T07:16:08.631Z,3.00
2022-10-04T07:18:56.455Z,3.42
2022-10-04T07:21:28.217Z,3.25
2022-10-04T07:24:01.732Z,2.90
2022-10-04T07:26:48.140Z,4.03
2022-10-04T07:29:24.879Z,4.07
2022-10-04T07:32:22.635Z,3.40
2022-10-04T07:35:14.065Z,4.03
2022-10-04T07:38:08.133Z,4.57
2022-10-04T07:40:38.713Z,4.38
2022-10-04T07:43:21.153Z,3.53
2022-10-04T07:45:50.512Z,3.28
2022-10-04T07:48:23.333Z,4.72
2022-10-04T07:51:09.432Z,4.30
2022-10-04T07:53:53.585Z,3.05
2022-10-04T07:56:47.386Z,5.22
2022-10-04T07:59:44.966Z,3.30
2022-10-04T08:02:31.554Z,3.60
2022-10-04T08:05:17.770Z,3.22
2022-10-04T08:08:19.557Z,2.83
2022-10-04T08:11:40.510Z,3.42
2022-10-04T08:14:35.845Z,2.50
2022-10-04T08:17:15.442Z,3.20
2022-10-04T08:20:12.880Z,2.80
2022-10-04T08:22:58.431Z,3.58
2022-10-04T08:25:35.111Z,2.83
2022-10-04T08:28:24.548Z,3.70
2022-10-04T08:31:10.414Z,3.22
2022-10-04T08:34:10.243Z,3.50
2022-10-04T08:37:17.790Z,2.72
2022-10-04T08:40:02.836Z,2.78
2022-10-04T08:43:14.507Z,2.45
2022-10-04T08:45:54.499Z,2.88
2022-10-04T08:48:56.136Z,2.72
2022-10-04T08:51:44.198Z,2.65
2022-10-04T08:54:35.609Z,3.40
2022-10-04T08:57:16.042Z,2.90
2022-10-04T09:00:08.752Z,2.80
2022-10-04T09:05:40.235Z,3.30
2022-10-04T09:08:27.762Z,2.70
2022-10-04T09:11:23.991Z,2.40
2022-10-04T09:14:05.398Z,2.80
2022-10-04T09:16:47.592Z,2.38
2022-10-04T09:19:17.722Z,2.75
2022-10-04T09:21:47.753Z,2.40
2022-10-04T09:24:38.571Z,2.67
2022-10-04T09:27:54.290Z,2.53
2022-10-04T09:31:00.241Z,2.72
2022-10-04T09:33:47.285Z,2.45
2022-10-04T09:36:46.651Z,2.65
2022-10-04T09:39:39.656Z,2.40
2022-10-04T09:42:06.547Z,3.35
2022-10-04T09:44:49.781Z,4.28
2022-10-04T09:47:42.805Z,2.85
2022-10-04T09:50:52.093Z,3.15
2022-10-04T09:53:37.775Z,3.03
2022-10-04T09:56:32.064Z,3.05
2022-10-04T09:59:25.111Z,2.72
2022-10-04T10:02:01.039Z,2.90
2022-10-04T10:04:52.198Z,2.92
2022-10-04T10:07:38.100Z,2.50
2022-10-04T10:10:43.128Z,3.03
2022-10-04T10:13:40.902Z,3.50
2022-10-04T10:16:34.208Z,2.92
2022-10-04T10:19:28.306Z,2.63
2022-10-04T10:22:07.701Z,2.47
2022-10-04T10:25:05.814Z,2.13
2022-10-04T10:27:32.788Z,3.00
2022-10-04T10:30:24.532Z,2.40
2022-10-04T10:33:23.052Z,2.70
2022-10-04T10:36:01.150Z,3.25
2022-10-04T10:38:41.107Z,3.65
2022-10-04T10:41:20.300Z,2.75
2022-10-04T10:43:59.231Z,2.22
2022-10-04T10:46:59.001Z,2.47
2022-10-04T10:49:56.077Z,2.85
2022-10-04T10:52:42.427Z,2.38
2022-10-04T10:55:32.812Z,2.05
2022-10-04T10:58:34.885Z,2.63
2022-10-04T11:01:19.783Z,2.63
2022-10-04T11:03:49.782Z,3.03
2022-10-04T11:06:38.919Z,2.65
2022-10-04T11:09:47.049Z,2.25
2022-10-04T11:12:49.700Z,2.63
2022-10-04T11:16:03.054Z,1.92
2022-10-04T11:19:01.563Z,2.20
2022-10-04T11:21:46.738Z,2.60
2022-10-04T11:24:49.252Z,2.80
2022-10-04T11:27:37.861Z,3.17
2022-10-04T11:30:26.828Z,2.30
2022-10-04T11:32:53.852Z,2.67
2022-10-04T11:35:47.923Z,2.25
2022-10-04T11:38:48.460Z,2.33
2022-10-04T11:41:51.852Z,2.00
2022-10-04T11:44:59.983Z,2.22
2022-10-04T11:47:48.154Z,3.08
2022-10-04T11:50:23.436Z,2.08
2022-10-04T11:52:56.671Z,2.05
2022-10-04T11:55:35.732Z,1.85
2022-10-04T11:58:21.224Z,1.85
2022-10-04T12:01:06.290Z,1.83
2022-10-04T12:03:49.940Z,2.47
2022-10-04T12:06:38.483Z,2.40
2022-10-04T12:09:33.458Z,1.90
2022-10-04T12:12:37.356Z,2.30
2022-10-04T12:15:19.267Z,2.47
2022-10-04T12:20:59.966Z,1.70
2022-10-04T12:23:45.071Z,1.60
2022-10-04T12:26:40.783Z,1.98
2022-10-04T12:29:28.863Z,1.85
2022-10-04T12:32:07.232Z,1.60
2022-10-04T12:35:00.992Z,1.90
2022-10-04T12:37:57.887Z,1.58
2022-10-04T12:40:37.287Z,1.25
2022-10-04T12:43:30.589Z,2.00
2022-10-04T12:46:17.627Z,1.70
2022-10-04T12:48:45.036Z,1.80
2022-10-04T12:51:40.282Z,1.63
2022-10-04T12:54:19.084Z,2.40
2022-10-04T12:56:47.749Z,1.83
2022-10-04T12:59:20.931Z,1.92
2022-10-04T13:02:27.578Z,1.77
2022-10-04T13:05:12.912Z,1.88
2022-10-04T13:08:07.526Z,1.73
2022-10-04T13:10:34.563Z,1.98
2022-10-04T13:13:21.718Z,1.85
2022-10-04T13:18:58.043Z,1.38
2022-10-04T13:21:36.874Z,2.47
2022-10-04T13:24:55.412Z,1.65
2022-10-04T13:27:44.424Z,1.67
2022-10-04T13:30:23.549Z,1.90
2022-10-04T13:33:26.594Z,1.88
2022-10-04T13:36:38.083Z,2.10
2022-10-04T13:39:14.978Z,1.70
2022-10-04T13:41:59.849Z,2.78
2022-10-04T13:45:10.966Z,1.58
2022-10-04T13:47:44.814Z,2.20
2022-10-04T13:50:14.861Z,1.80
2022-10-04T13:53:03.550Z,1.85
2022-10-04T13:56:06.225Z,1.35
2022-10-04T13:58:47.490Z,1.52
2022-10-04T14:01:48.706Z,2.05
2022-10-04T14:04:43.669Z,1.73
2022-10-04T14:07:30.386Z,1.60
2022-10-04T14:10:42.187Z,1.65
2022-10-04T14:13:27.956Z,1.30
2022-10-04T14:16:01.601Z,1.70
2022-10-04T14:19:22.765Z,1.50
2022-10-04T14:22:11.800Z,1.77
2022-10-04T14:24:58.123Z,1.40
2022-10-04T14:27:49.608Z,2.72
2022-10-04T14:30:25.822Z,1.83
2022-10-04T14:33:31.893Z,1.17
2022-10-04T14:36:17.771Z,1.55
2022-10-04T14:38:48.940Z,1.58
2022-10-04T14:41:22.624Z,1.83
2022-10-04T14:43:59.902Z,1.40
2022-10-04T14:46:54.286Z,2.38
2022-10-04T14:50:00.758Z,1.38
2022-10-04T14:52:32.482Z,1.50
2022-10-04T14:55:10.775Z,1.98
2022-10-04T14:57:50.233Z,2.40
2022-10-04T15:00:23.729Z,1.40
2022-10-04T15:03:16.063Z,1.35
2022-10-04T15:06:24.601Z,1.63
2022-10-04T15:08:54.503Z,1.42
2022-10-04T15:12:29.577Z,1.42
2022-10-04T15:15:01.315Z,2.20
2022-10-04T15:17:37.996Z,1.48
2022-10-04T15:20:19.720Z,1.60
2022-10-04T15:22:54.333Z,1.40
2022-10-04T15:25:44.331Z,2.00
2022-10-04T15:28:15.409Z,1.60
2022-10-04T15:31:05.142Z,1.65
2022-10-04T15:33:43.065Z,1.85
2022-10-04T15:36:38.266Z,1.88
2022-10-04T15:39:39.317Z,1.67
2022-10-04T15:42:28.055Z,1.30
2022-10-04T15:45:33.705Z,1.73
2022-10-04T15:48:32.085Z,1.35
2022-10-04T15:51:34.599Z,1.40
2022-10-04T15:54:04.843Z,1.25
2022-10-04T15:56:40.955Z,1.85
2022-10-04T15:59:13.973Z,1.75
2022-10-04T16:01:56.703Z,1.48
2022-10-04T16:04:58.995Z,1.55
2022-10-04T16:09:56.298Z,1.83
2022-10-04T16:12:33.582Z,1.50
2022-10-04T16:15:01.466Z,2.67
2022-10-04T16:17:37.566Z,1.60
2022-10-04T16:20:34.444Z,1.95
2022-10-04T16:23:31.650Z,1.58
2022-10-04T16:26:03.409Z,1.45
2022-10-04T16:28:48.746Z,1.25
2022-10-04T16:31:44.975Z,1.27
2022-10-04T16:34:24.846Z,1.52
2022-10-04T16:36:58.872Z,1.25
2022-10-04T16:40:01.979Z,1.40
2022-10-04T16:42:47.163Z,1.48
2022-10-04T16:45:38.318Z,1.42
2022-10-04T16:48:23.835Z,1.50
2022-10-04T16:51:18.365Z,2.20
2022-10-04T16:54:06.165Z,1.67
2022-10-04T16:56:57.245Z,1.67
2022-10-04T16:59:45.377Z,1.70
2022-10-04T17:02:36.848Z,1.48
2022-10-04T17:05:25.991Z,1.58
2022-10-04T17:08:14.374Z,1.60
2022-10-04T17:10:50.205Z,1.73
2022-10-04T17:13:27.273Z,1.50
2022-10-04T17:16:01.033Z,1.98
2022-10-04T17:18:46.907Z,1.55
2022-10-04T17:21:46.205Z,1.60
2022-10-04T17:24:42.221Z,1.45
2022-10-04T17:27:42.601Z,1.75
2022-10-04T17:30:23.569Z,1.95
2022-10-04T17:33:30.631Z,2.00
2022-10-04T17:36:06.917Z,2.03
2022-10-04T17:38:42.832Z,2.25
2022-10-04T17:41:35.274Z,2.28
2022-10-04T17:44:31.500Z,1.95
2022-10-04T17:47:14.726Z,2.58
2022-10-04T17:50:11.296Z,2.95
2022-10-04T17:53:30.906Z,1.70
2022-10-04T17:56:01.181Z,1.90
2022-10-04T17:58:55.976Z,2.72
2022-10-04T18:01:36.124Z,3.20
2022-10-04T18:04:11.932Z,3.60
2022-10-04T18:06:46.669Z,3.33
2022-10-04T18:09:35.620Z,1.80
2022-10-04T18:12:24.580Z,1.98
2022-10-04T18:15:15.562Z,2.35
2022-10-04T18:17:45.978Z,1.90
2022-10-04T18:20:35.153Z,1.98
2022-10-04T18:23:23.846Z,1.63
2022-10-04T18:25:55.162Z,2.08
2022-10-04T18:28:23.905Z,1.73
2022-10-04T18:30:54.476Z,1.80
2022-10-04T18:33:32.935Z,1.48
2022-10-04T18:36:22.488Z,1.73
2022-10-04T18:39:04.500Z,1.58
2022-10-04T18:44:21.731Z,1.40
2022-10-04T18:47:02.545Z,2.88
2022-10-04T18:49:43.624Z,2.45
2022-10-04T18:52:10.682Z,1.88
2022-10-04T18:55:15.513Z,1.60
2022-10-04T18:58:23.144Z,1.65
2022-10-04T19:01:40.400Z,1.70
2022-10-04T19:04:22.226Z,1.83
2022-10-04T19:06:49.693Z,1.50
2022-10-04T19:09:58.621Z,2.25
2022-10-04T19:12:36.954Z,1.63
2022-10-04T19:15:32.102Z,1.50
2022-10-04T19:18:24.336Z,2.05
2022-10-04T19:24:38.249Z,1.65
2022-10-04T19:27:10.938Z,1.73
2022-10-04T19:29:46.198Z,1.75
2022-10-04T19:32:33.860Z,4.38
2022-10-04T19:35:36.504Z,1.80
2022-10-04T19:38:40.222Z,3.33
2022-10-04T19:41:35.459Z,2.10
2022-10-04T19:44:31.050Z,2.25
2022-10-04T19:47:25.633Z,2.38
2022-10-04T19:50:18.774Z,2.40
2022-10-04T19:52:57.504Z,2.33
2022-10-04T19:55:28.213Z,2.03
2022-10-04T19:58:20.515Z,2.47
2022-10-04T20:00:49.561Z,1.88
2022-10-04T20:03:16.838Z,2.25
2022-10-04T20:05:49.314Z,2.58
2022-10-04T20:08:57.946Z,2.03
2022-10-04T20:11:40.768Z,2.22
2022-10-04T20:14:21.788Z,2.53
2022-10-04T20:16:53.291Z,2.50
2022-10-04T20:19:46.467Z,1.85
2022-10-04T20:22:19.652Z,2.17
2022-10-04T20:24:46.572Z,2.08
2022-10-04T20:27:25.495Z,2.53
2022-10-04T20:29:52.352Z,1.98
2022-10-04T20:32:34.375Z,2.33
2022-10-04T20:35:05.940Z,2.33
2022-10-04T20:37:45.197Z,2.13
2022-10-04T20:40:35.701Z,2.45
2022-10-04T20:43:18.258Z,1.90
2022-10-04T20:48:20.120Z,2.13
2022-10-04T20:50:49.925Z,2.22
2022-10-04T20:53:25.059Z,2.80
2022-10-04T20:56:24.858Z,2.08
2022-10-04T20:59:00.575Z,2.83
2022-10-04T21:01:36.324Z,2.17
2022-10-04T21:04:30.497Z,2.20
2022-10-04T21:07:12.574Z,2.35
2022-10-04T21:12:27.452Z,2.50
2022-10-04T21:15:13.222Z,2.30
2022-10-04T21:17:40.371Z,2.53
2022-10-04T21:20:15.508Z,2.42
2022-10-04T21:22:44.717Z,3.10
2022-10-04T21:25:32.185Z,2.17
2022-10-04T21:28:25.421Z,2.38
2022-10-04T21:30:52.632Z,1.92
2022-10-04T21:33:19.789Z,2.22
2022-10-04T21:35:50.845Z,2.00
2022-10-04T21:38:18.411Z,2.40
2022-10-04T21:40:45.490Z,2.33
2022-10-04T21:43:15.873Z,2.65
2022-10-04T21:45:42.914Z,2.97
2022-10-04T21:48:09.972Z,2.67
2022-10-04T21:50:36.894Z,2.60
2022-10-04T21:53:05.191Z,2.65
2022-10-04T21:55:32.529Z,2.22
2022-10-04T21:57:59.785Z,2.72
2022-10-04T22:00:27.811Z,3.65
2022-10-04T22:02:55.558Z,2.50
2022-10-04T22:05:22.488Z,2.45
2022-10-04T22:07:49.446Z,2.72
2022-10-04T22:10:16.779Z,2.80
2022-10-04T22:12:43.818Z,2.42
2022-10-04T22:15:10.844Z,2.25
2022-10-04T22:17:37.774Z,2.80
2022-10-04T22:20:05.106Z,2.97
2022-10-04T22:22:35.333Z,2.13
2022-10-04T22:25:18.334Z,3.13
2022-10-04T22:27:46.473Z,2.35
2022-10-04T22:30:19.372Z,2.78
2022-10-04T22:32:46.407Z,2.60
2022-10-04T22:35:16.051Z,2.47
2022-10-04T22:37:43.551Z,2.45
2022-10-04T22:40:22.930Z,3.08
2022-10-04T22:42:54.811Z,2.92
2022-10-04T22:47:54.722Z,2.28
2022-10-04T22:50:33.098Z,2.47
2022-10-04T22:53:13.619Z,2.65
2022-10-04T22:55:41.501Z,2.50
2022-10-04T22:58:13.467Z,2.10
2022-10-04T23:00:41.428Z,2.20
2022-10-04T23:03:32.213Z,2.05
2022-10-04T23:06:00.471Z,2.25
2022-10-04T23:08:27.650Z,2.95
2022-10-04T23:10:56.513Z,2.17
2022-10-04T23:13:25.013Z,2.53
2022-10-04T23:15:52.535Z,1.90
2022-10-04T23:18:19.599Z,2.30
2022-10-04T23:20:54.654Z,2.42
2022-10-04T23:23:22.336Z,2.83
2022-10-04T23:25:49.542Z,2.78
2022-10-04T23:28:18.942Z,2.75
2022-10-04T23:30:49.269Z,2.45
2022-10-04T23:33:22.280Z,2.78
2022-10-04T23:35:50.578Z,3.13
2022-10-04T23:38:21.112Z,2.83
2022-10-04T23:40:48.056Z,2.78
2022-10-04T23:43:24.518Z,2.63
2022-10-04T23:45:57.320Z,2.28
2022-10-04T23:48:28.986Z,2.63
2022-10-04T23:50:59.815Z,2.65
2022-10-04T23:53:30.410Z,2.17
2022-10-04T23:56:02.586Z,2.78
2022-10-04T23:58:34.032Z,2.63
